createdAt,value
2023-01-03T00:02:11.659Z,101557.38
2023-01-03T00:04:38.219Z,101565.91
2023-01-03T00:07:04.809Z,101567.50
2023-01-03T00:09:31.231Z,101568.78
2023-01-03T00:12:16.171Z,101579.22
2023-01-03T00:14:43.856Z,101575.84
2023-01-03T00:17:11.613Z,101582.28
2023-01-03T00:19:42.413Z,101584.06
2023-01-03T00:22:09.689Z,101590.31
2023-01-03T00:24:36.159Z,101603.53
2023-01-03T00:27:03.235Z,101599.13
2023-01-03T00:29:30.056Z,101600.28
2023-01-03T00:31:56.904Z,101606.06
2023-01-03T00:34:23.365Z,101603.31
2023-01-03T00:36:49.972Z,101613.94
2023-01-03T00:39:16.751Z,101615.69
2023-01-03T00:41:43.281Z,101618.41
2023-01-03T00:44:09.787Z,101618.84
2023-01-03T00:46:36.310Z,101630.28
2023-01-03T00:49:04.341Z,101632.34
2023-01-03T00:51:32.910Z,101635.25
2023-01-03T00:54:01.003Z,101647.91
2023-01-03T00:56:30.176Z,101652.09
2023-01-03T00:58:57.307Z,101648.63
2023-01-03T01:01:44.047Z,101653.97
2023-01-03T01:04:15.756Z,101665.34
2023-01-03T01:06:46.467Z,101672.41
2023-01-03T01:09:15.971Z,101668.44
2023-01-03T01:11:42.764Z,101684.69
2023-01-03T01:14:22.510Z,101691.66
2023-01-03T01:16:55.107Z,101690.72
2023-01-03T01:19:27.903Z,101698.66
2023-01-03T01:21:54.902Z,101703.06
2023-01-03T01:24:21.378Z,101709.13
2023-01-03T01:26:48.168Z,101720.75
2023-01-03T01:29:15.765Z,101725.31
2023-01-03T01:31:43.045Z,101730.13
2023-01-03T01:34:09.861Z,101731.91
2023-01-03T01:36:37.898Z,101730.94
2023-01-03T01:39:07.261Z,101736.06
2023-01-03T01:41:54.678Z,101741.84
2023-01-03T01:44:48.864Z,101742.81
2023-01-03T01:47:28.750Z,101737.28
2023-01-03T01:50:11.623Z,101749.63
2023-01-03T01:52:41.764Z,101744.41
2023-01-03T01:55:13.008Z,101749.25
2023-01-03T01:57:41.209Z,101747.84
2023-01-03T02:00:09.638Z,101747.00
2023-01-03T02:02:36.262Z,101752.91
2023-01-03T02:05:06.698Z,101751.09
2023-01-03T02:07:34.209Z,101750.47
2023-01-03T02:10:00.903Z,101749.66
2023-01-03T02:13:18.934Z,101751.78
2023-01-03T02:16:03.654Z,101752.13
2023-01-03T02:18:47.524Z,101752.75
2023-01-03T02:21:35.134Z,101762.63
2023-01-03T02:24:43.427Z,101760.13
2023-01-03T02:27:24.716Z,101762.94
2023-01-03T02:30:19.258Z,101769.31
2023-01-03T02:33:04.058Z,101771.75
2023-01-03T02:35:35.703Z,101772.97
2023-01-03T02:38:01.949Z,101771.75
2023-01-03T02:40:40.429Z,101777.72
2023-01-03T02:43:17.615Z,101774.59
2023-01-03T02:46:23.059Z,101785.50
2023-01-03T02:48:58.304Z,101791.03
2023-01-03T02:51:36.974Z,101804.78
2023-01-03T02:54:07.870Z,101800.84
2023-01-03T02:56:49.181Z,101802.25
2023-01-03T02:59:20.149Z,101807.81
2023-01-03T03:01:50.094Z,101804.28
2023-01-03T03:04:18.865Z,101806.91
2023-01-03T03:06:52.707Z,101812.84
2023-01-03T03:09:19.227Z,101816.50
2023-01-03T03:12:04.735Z,101816.50
2023-01-03T03:14:38.797Z,101818.78
2023-01-03T03:17:17.477Z,101818.47
2023-01-03T03:20:06.446Z,101820.34
2023-01-03T03:22:59.168Z,101822.03
2023-01-03T03:25:33.633Z,101823.84
2023-01-03T03:28:23.675Z,101829.69
2023-01-03T03:30:54.592Z,101832.22
2023-01-03T03:33:24.527Z,101831.63
2023-01-03T03:35:56.450Z,101838.69
2023-01-03T03:38:30.080Z,101835.97
2023-01-03T03:41:38.968Z,101838.00
2023-01-03T03:44:35.649Z,101839.28
2023-01-03T03:47:15.960Z,101846.72
2023-01-03T03:49:45.868Z,101835.03
2023-01-03T03:52:19.119Z,101839.81
2023-01-03T03:54:59.028Z,101832.78
2023-01-03T03:57:35.002Z,101823.88
2023-01-03T04:00:08.881Z,101839.94
2023-01-03T04:02:36.959Z,101844.91
2023-01-03T04:05:07.927Z,101846.63
2023-01-03T04:07:35.108Z,101855.81
2023-01-03T04:10:01.760Z,101855.50
2023-01-03T04:12:28.257Z,101857.00
2023-01-03T04:14:54.710Z,101860.78
2023-01-03T04:17:21.103Z,101861.31
2023-01-03T04:19:47.478Z,101865.09
2023-01-03T04:22:13.946Z,101871.47
2023-01-03T04:24:40.312Z,101874.06
2023-01-03T04:27:06.769Z,101874.25
2023-01-03T04:29:38.951Z,101877.94
2023-01-03T04:32:06.329Z,101883.75
2023-01-03T04:34:32.813Z,101886.13
2023-01-03T04:36:59.245Z,101886.53
2023-01-03T04:39:25.659Z,101894.72
2023-01-03T04:41:52.087Z,101890.75
2023-01-03T04:44:18.456Z,101901.06
2023-01-03T04:46:50.697Z,101909.44
2023-01-03T04:49:20.310Z,101908.75
2023-01-03T04:51:46.805Z,101907.38
2023-01-03T04:54:13.228Z,101903.09
2023-01-03T04:56:39.749Z,101909.69
2023-01-03T04:59:06.430Z,101911.91
2023-01-03T05:01:33.216Z,101910.63
2023-01-03T05:04:01.678Z,101916.97
2023-01-03T05:06:28.777Z,101910.47
2023-01-03T05:08:55.195Z,101920.50
2023-01-03T05:11:21.888Z,101922.94
2023-01-03T05:13:48.312Z,101909.97
2023-01-03T05:16:15.441Z,101921.94
2023-01-03T05:18:42.476Z,101924.13
2023-01-03T05:21:38.754Z,101933.34
2023-01-03T05:24:24.494Z,101926.97
2023-01-03T05:26:52.270Z,101932.75
2023-01-03T05:29:21.376Z,101928.41
2023-01-03T05:31:48.549Z,101936.06
2023-01-03T05:34:15.361Z,101937.94
2023-01-03T05:36:41.762Z,101940.19
2023-01-03T05:39:08.193Z,101933.44
2023-01-03T05:41:53.217Z,101941.88
2023-01-03T05:44:19.676Z,101937.59
2023-01-03T05:46:46.068Z,101945.97
2023-01-03T05:49:12.861Z,101943.69
2023-01-03T05:51:39.331Z,101945.31
2023-01-03T05:54:06.089Z,101955.59
2023-01-03T05:56:33.266Z,101956.44
2023-01-03T05:59:00.674Z,101960.00
2023-01-03T06:01:28.404Z,101958.06
2023-01-03T06:03:55.541Z,101956.19
2023-01-03T06:06:22.118Z,101970.31
2023-01-03T06:08:48.861Z,101964.03
2023-01-03T06:11:16.793Z,101969.78
2023-01-03T06:13:43.300Z,101967.34
2023-01-03T06:16:31.527Z,101976.59
2023-01-03T06:18:58.959Z,101972.19
2023-01-03T06:21:25.427Z,101970.22
2023-01-03T06:23:51.859Z,101975.97
2023-01-03T06:26:20.182Z,101975.13
2023-01-03T06:28:46.675Z,101967.50
2023-01-03T06:31:13.868Z,101979.03
2023-01-03T06:33:41.347Z,101974.97
2023-01-03T06:36:10.724Z,101975.53
2023-01-03T06:38:38.089Z,101975.25
2023-01-03T06:41:05.064Z,101974.38
2023-01-03T06:43:31.667Z,101984.19
2023-01-03T06:46:18.543Z,101991.50
2023-01-03T06:49:04.123Z,102000.91
2023-01-03T06:51:50.433Z,101999.91
2023-01-03T06:54:28.933Z,101999.66
2023-01-03T06:56:55.834Z,102014.38
2023-01-03T06:59:23.280Z,102009.53
2023-01-03T07:01:51.543Z,102014.44
2023-01-03T07:04:18.590Z,102014.88
2023-01-03T07:06:45.396Z,102011.72
2023-01-03T07:09:12.693Z,102018.78
2023-01-03T07:11:40.388Z,102023.16
2023-01-03T07:14:08.969Z,102027.00
2023-01-03T07:16:43.683Z,102028.56
2023-01-03T07:19:15.793Z,102022.94
2023-01-03T07:21:42.854Z,102031.31
2023-01-03T07:24:13.159Z,102031.09
2023-01-03T07:26:39.853Z,102032.59
2023-01-03T07:29:08.700Z,102041.59
2023-01-03T07:31:38.523Z,102042.66
2023-01-03T07:34:05.090Z,102041.06
2023-01-03T07:36:31.543Z,102038.91
2023-01-03T07:38:58.021Z,102050.09
2023-01-03T07:41:44.465Z,102045.44
2023-01-03T07:44:10.943Z,102043.34
2023-01-03T07:46:37.721Z,102052.56
2023-01-03T07:49:09.642Z,102046.91
2023-01-03T07:51:38.268Z,102051.50
2023-01-03T07:54:04.654Z,102051.53
2023-01-03T07:56:31.133Z,102059.09
2023-01-03T07:58:57.639Z,102058.28
2023-01-03T08:01:25.077Z,102067.78
2023-01-03T08:03:51.632Z,102060.72
2023-01-03T08:06:21.408Z,102073.50
2023-01-03T08:09:11.180Z,102077.28
2023-01-03T08:11:57.160Z,102071.56
2023-01-03T08:14:26.519Z,102074.78
2023-01-03T08:16:54.155Z,102076.63
2023-01-03T08:19:20.643Z,102088.59
2023-01-03T08:21:47.144Z,102084.47
2023-01-03T08:24:13.593Z,102086.38
2023-01-03T08:26:40.142Z,102092.06
2023-01-03T08:29:06.846Z,102092.69
2023-01-03T08:31:39.018Z,102088.81
2023-01-03T08:34:15.820Z,102091.03
2023-01-03T08:36:49.445Z,102092.97
2023-01-03T08:39:18.122Z,102095.06
2023-01-03T08:41:53.463Z,102100.56
2023-01-03T08:44:19.910Z,102100.28
2023-01-03T08:46:49.873Z,102102.91
2023-01-03T08:49:16.541Z,102111.34
2023-01-03T08:51:43.146Z,102109.41
2023-01-03T08:54:09.669Z,102112.94
2023-01-03T08:56:36.541Z,102116.75
2023-01-03T08:59:03.126Z,102120.81
2023-01-03T09:01:29.815Z,102112.66
2023-01-03T09:03:56.389Z,102126.50
2023-01-03T09:06:22.878Z,102128.44
2023-01-03T09:08:49.367Z,102133.84
2023-01-03T09:11:15.811Z,102131.38
2023-01-03T09:13:42.379Z,102138.69
2023-01-03T09:16:11.458Z,102141.94
2023-01-03T09:18:39.982Z,102151.16
2023-01-03T09:21:07.259Z,102153.34
2023-01-03T09:23:34.965Z,102154.09
2023-01-03T09:26:02.023Z,102165.41
2023-01-03T09:28:28.877Z,102171.78
2023-01-03T09:30:55.576Z,102170.09
2023-01-03T09:33:22.197Z,102164.97
2023-01-03T09:35:48.853Z,102168.75
2023-01-03T09:38:15.420Z,102167.88
2023-01-03T09:40:45.839Z,102171.16
2023-01-03T09:43:24.921Z,102168.75
2023-01-03T09:45:58.247Z,102180.63
2023-01-03T09:48:35.840Z,102176.72
2023-01-03T09:51:22.607Z,102181.56
2023-01-03T09:54:07.878Z,102185.41
2023-01-03T09:56:53.182Z,102192.94
2023-01-03T09:59:58.235Z,102180.94
2023-01-03T10:03:19.885Z,102180.63
2023-01-03T10:05:53.660Z,102177.13
2023-01-03T10:08:35.567Z,102179.00
2023-01-03T10:11:12.280Z,102182.59
2023-01-03T10:13:47.879Z,102181.25
2023-01-03T10:16:32.981Z,102178.00
2023-01-03T10:19:18.231Z,102189.13
2023-01-03T10:22:10.821Z,102186.59
2023-01-03T10:24:45.726Z,102181.25
2023-01-03T10:27:25.147Z,102185.31
2023-01-03T10:29:59.196Z,102182.28
2023-01-03T10:32:59.878Z,102180.25
2023-01-03T10:35:35.210Z,102184.09
2023-01-03T10:38:02.323Z,102180.22
2023-01-03T10:40:56.594Z,102190.16
2023-01-03T10:43:28.388Z,102195.59
2023-01-03T10:46:02.429Z,102205.41
2023-01-03T10:49:00.328Z,102197.44
2023-01-03T10:51:54.641Z,102190.72
2023-01-03T10:54:28.487Z,102187.81
2023-01-03T10:56:55.320Z,102196.03
2023-01-03T10:59:30.115Z,102199.19
2023-01-03T11:02:08.783Z,102192.88
2023-01-03T11:04:36.248Z,102193.50
2023-01-03T11:07:15.457Z,102192.59
2023-01-03T11:09:54.961Z,102195.91
2023-01-03T11:12:36.460Z,102205.13
2023-01-03T11:15:23.885Z,102204.59
2023-01-03T11:17:55.861Z,102210.47
2023-01-03T11:20:38.168Z,102199.94
2023-01-03T11:23:13.608Z,102199.28
2023-01-03T11:26:07.160Z,102195.28
2023-01-03T11:29:07.754Z,102202.34
2023-01-03T11:31:43.527Z,102208.75
2023-01-03T11:34:21.994Z,102204.25
2023-01-03T11:36:55.467Z,102212.38
2023-01-03T11:39:43.796Z,102205.75
2023-01-03T11:42:34.570Z,102206.28
2023-01-03T11:45:10.063Z,102199.81
2023-01-03T11:47:39.595Z,102199.38
2023-01-03T11:50:27.533Z,102190.91
2023-01-03T11:53:03.262Z,102207.88
2023-01-03T11:55:49.927Z,102207.13
2023-01-03T11:58:42.573Z,102203.94
2023-01-03T12:01:24.801Z,102203.59
2023-01-03T12:04:24.292Z,102201.03
2023-01-03T12:07:37.443Z,102210.19
2023-01-03T12:10:10.240Z,102207.41
2023-01-03T12:13:00.871Z,102203.47
2023-01-03T12:15:44.825Z,102194.16
2023-01-03T12:18:37.401Z,102199.66
2023-01-03T12:21:36.820Z,102191.19
2023-01-03T12:24:18.452Z,102182.25
2023-01-03T12:26:54.861Z,102193.78
2023-01-03T12:29:28.973Z,102185.72
2023-01-03T12:32:06.723Z,102195.16
2023-01-03T12:34:54.184Z,102190.66
2023-01-03T12:37:24.117Z,102193.63
2023-01-03T12:40:01.110Z,102188.69
2023-01-03T12:42:59.854Z,102190.41
2023-01-03T12:45:34.684Z,102188.81
2023-01-03T12:48:25.147Z,102187.75
2023-01-03T12:50:52.793Z,102186.97
2023-01-03T12:53:43.101Z,102187.09
2023-01-03T12:56:38.121Z,102180.16
2023-01-03T12:59:23.065Z,102191.88
2023-01-03T13:01:59.162Z,102192.56
2023-01-03T13:04:28.573Z,102185.13
2023-01-03T13:07:02.041Z,102184.09
2023-01-03T13:09:39.894Z,102180.97
2023-01-03T13:12:16.431Z,102176.75
2023-01-03T13:14:52.819Z,102167.41
2023-01-03T13:17:25.501Z,102169.50
2023-01-03T13:20:10.785Z,102165.44
2023-01-03T13:22:54.035Z,102165.53
2023-01-03T13:25:26.657Z,102161.66
2023-01-03T13:27:55.881Z,102174.66
2023-01-03T13:30:28.352Z,102174.31
2023-01-03T13:33:16.566Z,102173.28
2023-01-03T13:35:42.991Z,102172.97
2023-01-03T13:38:24.269Z,102180.81
2023-01-03T13:43:44.839Z,102177.66
2023-01-03T13:46:22.664Z,102185.16
2023-01-03T13:48:58.799Z,102186.25
2023-01-03T13:51:33.834Z,102188.81
2023-01-03T13:54:03.647Z,102187.88
2023-01-03T13:56:31.779Z,102183.34
2023-01-03T13:59:34.804Z,102186.31
2023-01-03T14:02:10.320Z,102193.63
2023-01-03T14:04:36.930Z,102181.03
2023-01-03T14:07:34.041Z,102185.63
2023-01-03T14:10:09.440Z,102176.97
2023-01-03T14:12:35.991Z,102181.06
2023-01-03T14:15:23.057Z,102185.25
2023-01-03T14:17:59.767Z,102185.72
2023-01-03T14:20:31.464Z,102188.88
2023-01-03T14:23:17.252Z,102181.25
2023-01-03T14:25:50.742Z,102178.34
2023-01-03T14:28:25.211Z,102181.69
2023-01-03T14:31:38.305Z,102178.13
2023-01-03T14:34:05.872Z,102181.91
2023-01-03T14:36:46.076Z,102179.78
2023-01-03T14:39:22.660Z,102179.03
2023-01-03T14:41:49.232Z,102191.09
2023-01-03T14:44:16.501Z,102182.97
2023-01-03T14:46:56.009Z,102193.44
2023-01-03T14:49:49.812Z,102187.75
2023-01-03T14:52:18.453Z,102196.91
2023-01-03T14:54:48.368Z,102196.84
2023-01-03T14:57:19.324Z,102190.03
2023-01-03T14:59:47.035Z,102191.97
2023-01-03T15:02:14.276Z,102188.75
2023-01-03T15:04:48.918Z,102203.75
2023-01-03T15:07:27.616Z,102196.81
2023-01-03T15:10:18.026Z,102191.19
2023-01-03T15:12:50.402Z,102201.84
2023-01-03T15:15:21.618Z,102197.88
2023-01-03T15:17:51.569Z,102197.06
2023-01-03T15:20:36.930Z,102193.81
2023-01-03T15:23:04.359Z,102188.72
2023-01-03T15:25:41.205Z,102188.28
2023-01-03T15:28:27.725Z,102200.50
2023-01-03T15:30:57.726Z,102198.13
2023-01-03T15:33:34.889Z,102202.75
2023-01-03T15:36:10.910Z,102198.25
2023-01-03T15:38:45.674Z,102202.84
2023-01-03T15:41:49.069Z,102205.28
2023-01-03T15:44:24.259Z,102203.69
2023-01-03T15:46:51.053Z,102201.50
2023-01-03T15:49:23.223Z,102204.78
2023-01-03T15:51:49.701Z,102207.53
2023-01-03T15:54:18.598Z,102204.81
2023-01-03T15:57:03.053Z,102205.97
2023-01-03T15:59:35.669Z,102205.38
2023-01-03T16:02:14.636Z,102198.88
2023-01-03T16:04:41.663Z,102204.03
2023-01-03T16:07:10.654Z,102201.06
2023-01-03T16:09:37.335Z,102211.13
2023-01-03T16:12:04.660Z,102205.97
2023-01-03T16:14:35.513Z,102212.22
2023-01-03T16:17:03.916Z,102214.13
2023-01-03T16:19:31.143Z,102216.00
2023-01-03T16:24:47.768Z,102214.38
2023-01-03T16:27:20.950Z,102215.16
2023-01-03T16:29:47.489Z,102213.28
2023-01-03T16:32:28.844Z,102214.63
2023-01-03T16:35:02.058Z,102212.16
2023-01-03T16:37:28.975Z,102212.69
2023-01-03T16:39:55.640Z,102209.69
2023-01-03T16:42:27.509Z,102211.59
2023-01-03T16:44:55.038Z,102208.06
2023-01-03T16:47:23.921Z,102205.34
2023-01-03T16:50:00.693Z,102212.38
2023-01-03T16:52:32.735Z,102213.44
2023-01-03T16:55:04.404Z,102193.66
2023-01-03T16:57:30.882Z,102203.13
2023-01-03T16:59:57.420Z,102192.53
2023-01-03T17:02:23.983Z,102188.41
2023-01-03T17:04:50.575Z,102188.19
2023-01-03T17:07:21.495Z,102190.56
2023-01-03T17:09:50.825Z,102180.84
2023-01-03T17:12:22.733Z,102178.06
2023-01-03T17:14:50.497Z,102179.75
2023-01-03T17:17:19.495Z,102188.97
2023-01-03T17:22:32.553Z,102190.06
2023-01-03T17:24:59.164Z,102193.84
2023-01-03T17:27:32.029Z,102188.97
2023-01-03T17:30:03.313Z,102187.53
2023-01-03T17:32:30.574Z,102185.16
2023-01-03T17:34:57.144Z,102190.59
2023-01-03T17:37:24.208Z,102196.25
2023-01-03T17:39:56.823Z,102198.97
2023-01-03T17:42:25.799Z,102198.13
2023-01-03T17:45:11.878Z,102198.94
2023-01-03T17:48:01.704Z,102192.34
2023-01-03T17:50:31.090Z,102197.53
2023-01-03T17:52:58.606Z,102194.78
2023-01-03T17:55:28.748Z,102194.50
2023-01-03T17:57:56.703Z,102200.75
2023-01-03T18:00:25.682Z,102200.25
2023-01-03T18:02:54.276Z,102196.97
2023-01-03T18:05:27.509Z,102198.59
2023-01-03T18:08:00.172Z,102202.53
2023-01-03T18:10:43.876Z,102189.63
2023-01-03T18:13:47.620Z,102189.88
2023-01-03T18:16:20.249Z,102194.06
2023-01-03T18:18:47.487Z,102201.38
2023-01-03T18:21:25.278Z,102199.47
2023-01-03T18:23:58.829Z,102202.75
2023-01-03T18:26:36.847Z,102193.34
2023-01-03T18:29:05.465Z,102195.00
2023-01-03T18:31:32.421Z,102198.31
2023-01-03T18:34:03.922Z,102185.56
2023-01-03T18:36:31.556Z,102191.56
2023-01-03T18:39:04.144Z,102185.88
2023-01-03T18:41:33.097Z,102192.34
2023-01-03T18:44:00.379Z,102192.91
2023-01-03T18:46:28.145Z,102191.56
2023-01-03T18:48:56.092Z,102177.97
2023-01-03T18:51:28.206Z,102184.00
2023-01-03T18:53:57.708Z,102182.91
2023-01-03T18:56:32.590Z,102181.00
2023-01-03T18:59:02.729Z,102178.28
2023-01-03T19:01:29.739Z,102168.78
2023-01-03T19:03:56.848Z,102177.75
2023-01-03T19:06:33.361Z,102186.69
2023-01-03T19:09:02.214Z,102184.53
2023-01-03T19:11:37.524Z,102183.47
2023-01-03T19:14:04.122Z,102180.47
2023-01-03T19:16:36.444Z,102177.22
2023-01-03T19:19:04.765Z,102167.44
2023-01-03T19:21:34.309Z,102170.16
2023-01-03T19:24:05.828Z,102167.69
2023-01-03T19:26:43.896Z,102161.44
2023-01-03T19:29:36.996Z,102153.84
2023-01-03T19:32:10.225Z,102144.59
2023-01-03T19:34:36.663Z,102139.50
2023-01-03T19:37:03.094Z,102131.91
2023-01-03T19:39:36.798Z,102127.56
2023-01-03T19:42:24.061Z,102128.38
2023-01-03T19:44:50.700Z,102122.13
2023-01-03T19:47:19.887Z,102112.59
2023-01-03T19:49:47.511Z,102115.56
2023-01-03T19:52:14.701Z,102113.16
2023-01-03T19:54:41.182Z,102113.13
2023-01-03T19:57:20.551Z,102115.59
2023-01-03T19:59:52.628Z,102118.50
2023-01-03T20:02:40.819Z,102110.91
2023-01-03T20:05:30.195Z,102106.34
2023-01-03T20:07:56.653Z,102098.19
2023-01-03T20:10:25.312Z,102096.03
2023-01-03T20:12:54.564Z,102095.44
2023-01-03T20:15:24.954Z,102093.00
2023-01-03T20:17:52.922Z,102084.06
2023-01-03T20:20:20.567Z,102094.63
2023-01-03T20:23:06.443Z,102099.50
2023-01-03T20:25:35.379Z,102085.34
2023-01-03T20:28:02.328Z,102081.28
2023-01-03T20:30:32.024Z,102087.59
2023-01-03T20:32:59.035Z,102086.47
2023-01-03T20:38:17.086Z,102075.91
2023-01-03T20:40:43.602Z,102075.97
2023-01-03T20:43:14.491Z,102078.16
2023-01-03T20:45:40.976Z,102065.69
2023-01-03T20:48:15.793Z,102071.88
2023-01-03T20:50:46.024Z,102070.84
2023-01-03T20:53:17.737Z,102071.84
2023-01-03T20:55:44.177Z,102065.91
2023-01-03T20:58:15.138Z,102070.78
2023-01-03T21:00:42.193Z,102068.09
2023-01-03T21:03:08.970Z,102069.75
2023-01-03T21:05:37.056Z,102071.53
2023-01-03T21:08:23.359Z,102065.56
2023-01-03T21:10:53.350Z,102056.06
2023-01-03T21:13:20.800Z,102045.44
2023-01-03T21:15:48.699Z,102044.09
2023-01-03T21:18:15.836Z,102046.81
2023-01-03T21:20:43.183Z,102042.47
2023-01-03T21:23:16.946Z,102039.53
2023-01-03T21:25:43.649Z,102044.69
2023-01-03T21:28:11.001Z,102051.75
2023-01-03T21:30:38.253Z,102050.19
2023-01-03T21:33:05.277Z,102048.28
2023-01-03T21:35:32.110Z,102046.91
2023-01-03T21:37:58.603Z,102044.47
2023-01-03T21:40:27.669Z,102043.13
2023-01-03T21:43:03.783Z,102042.59
2023-01-03T21:45:38.964Z,102045.88
2023-01-03T21:48:09.480Z,102045.84
2023-01-03T21:50:39.046Z,102046.72
2023-01-03T21:53:06.560Z,102038.84
2023-01-03T21:55:33.580Z,102038.88
2023-01-03T21:58:00.959Z,102033.19
2023-01-03T22:00:27.391Z,102025.88
2023-01-03T22:03:12.646Z,102025.31
2023-01-03T22:05:39.112Z,102021.84
2023-01-03T22:08:06.560Z,102021.56
2023-01-03T22:10:34.317Z,102020.47
2023-01-03T22:13:03.438Z,102019.41
2023-01-03T22:15:30.036Z,102015.63
2023-01-03T22:17:57.212Z,102007.25
2023-01-03T22:20:26.051Z,102016.72
2023-01-03T22:22:53.070Z,102011.84
2023-01-03T22:25:22.522Z,102015.38
2023-01-03T22:27:49.622Z,102005.63
2023-01-03T22:30:20.246Z,102012.66
2023-01-03T22:32:47.244Z,102010.50
2023-01-03T22:35:15.769Z,101996.13
2023-01-03T22:37:42.668Z,101983.13
2023-01-03T22:40:13.412Z,101987.16
2023-01-03T22:42:39.894Z,101983.06
2023-01-03T22:45:07.282Z,101978.66
2023-01-03T22:47:38.302Z,101980.25
2023-01-03T22:50:06.398Z,101973.69
2023-01-03T22:52:33.200Z,101970.63
2023-01-03T22:54:59.702Z,101970.09
2023-01-03T22:57:26.159Z,101970.31
2023-01-03T22:59:52.598Z,101968.44
2023-01-03T23:02:23.271Z,101974.88
2023-01-03T23:04:54.634Z,101963.94
2023-01-03T23:07:21.405Z,101967.66
2023-01-03T23:09:48.244Z,101971.03
2023-01-03T23:12:33.421Z,101963.34
2023-01-03T23:14:59.845Z,101968.53
2023-01-03T23:17:44.818Z,101970.38
2023-01-03T23:20:11.463Z,101955.19
2023-01-03T23:22:37.908Z,101947.59
2023-01-03T23:25:04.615Z,101939.22
2023-01-03T23:27:31.088Z,101943.25
2023-01-03T23:29:57.492Z,101936.72
2023-01-03T23:32:23.936Z,101936.28
2023-01-03T23:34:50.393Z,101930.03
2023-01-03T23:37:16.779Z,101918.41
2023-01-03T23:39:43.549Z,101907.38
2023-01-03T23:42:10.031Z,101899.34
2023-01-03T23:44:36.452Z,101887.66
2023-01-03T23:47:07.666Z,101884.84
2023-01-03T23:49:37.705Z,101890.66
2023-01-03T23:52:04.394Z,101882.28
2023-01-03T23:54:31.001Z,101892.75
2023-01-03T23:56:57.435Z,101885.78
2023-01-03T23:59:23.856Z,101887.69
